Time;durP1;ratioP1;P1;durP2;ratioP2;P2;SDS_P1;SDS_P2;PMS_P1;PMS_P2;Temp;Humidity;BMP_temperature;BMP_pressure;BME280_temperature;BME280_humidity;BME280_pressure;Samples;Min_cycle;Max_cycle;Signal;HPM_P1;HPM_P2
2022/12/16 00:01:15;;;;;;;24.00;19.02;;;6.60;99.90;;;;;;5072146;28;20449;-58
2022/12/16 00:03:45;;;;;;;23.27;18.13;;;6.60;99.90;;;;;;5071614;28;20261;-58
2022/12/16 00:06:11;;;;;;;21.77;17.40;;;6.60;99.90;;;;;;5071270;28;20033;-58
2022/12/16 00:08:38;;;;;;;21.63;18.48;;;6.60;99.90;;;;;;5071952;28;20035;-58
2022/12/16 00:11:04;;;;;;;21.42;17.60;;;6.60;99.90;;;;;;5071802;28;20031;-58
2022/12/16 00:13:31;;;;;;;24.00;18.55;;;6.60;99.90;;;;;;5074733;28;20124;-58
2022/12/16 00:15:57;;;;;;;21.63;17.77;;;6.60;99.90;;;;;;5075178;28;20028;-58
2022/12/16 00:18:24;;;;;;;19.70;17.55;;;6.60;99.90;;;;;;5075146;28;20487;-58
2022/12/16 00:20:54;;;;;;;22.30;18.20;;;6.70;99.90;;;;;;5074776;28;20032;-58
2022/12/16 00:23:20;;;;;;;21.00;18.77;;;6.70;99.90;;;;;;5075532;28;20095;-58
2022/12/16 00:25:47;;;;;;;20.77;18.20;;;6.60;99.90;;;;;;5074625;28;20038;-58
2022/12/16 00:28:14;;;;;;;22.30;17.48;;;6.70;99.90;;;;;;5074987;28;20381;-58
2022/12/16 00:30:43;;;;;;;21.05;17.42;;;6.60;99.90;;;;;;5073668;28;20029;-59
2022/12/16 00:33:09;;;;;;;23.08;18.83;;;6.60;99.90;;;;;;5074737;28;20025;-59
2022/12/16 00:35:34;;;;;;;23.05;18.67;;;6.50;99.90;;;;;;5075034;28;20035;-58
2022/12/16 00:38:00;;;;;;;21.98;18.40;;;6.50;99.90;;;;;;5074885;28;20021;-58
2022/12/16 00:40:26;;;;;;;21.13;17.38;;;6.40;99.90;;;;;;5075265;28;20385;-58
2022/12/16 00:42:52;;;;;;;22.27;17.70;;;6.30;99.90;;;;;;5074844;28;20039;-58
2022/12/16 00:45:18;;;;;;;19.77;16.58;;;6.30;99.90;;;;;;5074651;28;20028;-58
2022/12/16 00:47:44;;;;;;;21.48;16.90;;;6.30;99.90;;;;;;5074493;28;20082;-58
2022/12/16 00:50:10;;;;;;;20.40;17.88;;;6.30;99.90;;;;;;5075066;28;20033;-59
2022/12/16 00:52:37;;;;;;;20.98;16.83;;;6.30;99.90;;;;;;5074539;28;20071;-58
2022/12/16 00:55:03;;;;;;;20.13;17.00;;;6.30;99.90;;;;;;5074671;28;20035;-58
2022/12/16 00:57:29;;;;;;;19.75;17.05;;;6.30;99.90;;;;;;5075067;28;20025;-58
2022/12/16 00:59:54;;;;;;;17.58;15.68;;;6.40;99.90;;;;;;5074464;28;20029;-59
2022/12/16 01:02:20;;;;;;;19.40;16.70;;;6.40;99.90;;;;;;5074242;28;20056;-58
2022/12/16 01:04:46;;;;;;;19.60;16.38;;;6.30;99.90;;;;;;5074336;28;20370;-59
2022/12/16 01:07:11;;;;;;;17.08;15.20;;;6.40;99.90;;;;;;5074811;28;20032;-58
2022/12/16 01:09:37;;;;;;;18.52;15.38;;;6.40;99.90;;;;;;5074340;28;20128;-58
2022/12/16 01:12:03;;;;;;;16.20;14.48;;;6.30;99.90;;;;;;5074008;28;20078;-58
2022/12/16 01:14:29;;;;;;;19.85;15.60;;;6.30;99.90;;;;;;5074308;28;20478;-58
2022/12/16 01:16:54;;;;;;;17.42;15.63;;;6.30;99.90;;;;;;5073872;28;20033;-58
2022/12/16 01:19:20;;;;;;;17.30;15.15;;;6.20;99.90;;;;;;5074221;28;20021;-59
2022/12/16 01:21:46;;;;;;;21.67;17.77;;;6.30;99.90;;;;;;5074057;28;20103;-58
2022/12/16 01:24:11;;;;;;;19.00;16.33;;;6.20;99.90;;;;;;5073813;28;20185;-59
2022/12/16 01:26:38;;;;;;;18.25;16.35;;;6.10;99.90;;;;;;5073610;28;20061;-58
2022/12/16 01:29:04;;;;;;;19.95;16.98;;;6.00;99.90;;;;;;5073646;28;20025;-58
2022/12/16 01:31:30;;;;;;;19.95;17.23;;;6.00;99.90;;;;;;5073585;28;20042;-59
2022/12/16 01:33:56;;;;;;;23.95;17.27;;;6.00;99.90;;;;;;5073851;28;20103;-59
2022/12/16 01:36:22;;;;;;;21.83;17.15;;;6.00;99.90;;;;;;5074138;28;20037;-59
2022/12/16 01:38:48;;;;;;;19.75;17.60;;;5.90;99.90;;;;;;5072438;28;20027;-59
2022/12/16 01:41:15;;;;;;;22.10;18.60;;;6.00;99.90;;;;;;5073654;28;20024;-58
2022/12/16 01:43:42;;;;;;;21.80;17.48;;;5.90;99.90;;;;;;5073750;28;20146;-58
2022/12/16 01:46:11;;;;;;;20.65;18.42;;;5.90;99.90;;;;;;5073663;28;20067;-59
2022/12/16 01:48:58;;;;;;;21.17;18.27;;;5.90;99.90;;;;;;5073539;28;20099;-58
2022/12/16 01:51:37;;;;;;;21.67;17.17;;;5.90;99.90;;;;;;5073526;28;20032;-58
2022/12/16 01:54:15;;;;;;;19.88;17.83;;;5.90;99.90;;;;;;5073522;28;20408;-58
2022/12/16 01:56:47;;;;;;;22.75;19.08;;;5.90;99.90;;;;;;5073221;28;20448;-59
2022/12/16 01:59:15;;;;;;;20.55;17.35;;;5.90;99.90;;;;;;5072374;28;20154;-58
2022/12/16 02:01:41;;;;;;;24.27;19.08;;;5.90;99.90;;;;;;5073324;28;20066;-58
2022/12/16 02:04:07;;;;;;;22.05;18.15;;;5.90;99.90;;;;;;5073184;28;20040;-58
2022/12/16 02:06:33;;;;;;;20.40;17.35;;;5.90;99.90;;;;;;5073192;28;20032;-59
2022/12/16 02:09:05;;;;;;;23.50;18.15;;;5.90;99.90;;;;;;5073181;28;20024;-58
2022/12/16 02:11:49;;;;;;;21.85;15.93;;;5.90;99.90;;;;;;5073480;28;20082;-58
2022/12/16 02:14:34;;;;;;;21.38;17.13;;;5.90;99.90;;;;;;5073296;28;20111;-59
2022/12/16 02:17:07;;;;;;;21.88;17.60;;;5.90;99.90;;;;;;5073407;28;20024;-58
2022/12/16 02:20:24;;;;;;;20.40;17.45;;;5.90;99.90;;;;;;5072895;28;20041;-59
2022/12/16 02:23:27;;;;;;;22.90;18.02;;;5.80;99.90;;;;;;5030762;28;20075;-58
2022/12/16 02:26:10;;;;;;;23.30;18.63;;;5.70;99.90;;;;;;5030231;28;20072;-58
2022/12/16 02:29:06;;;;;;;24.08;19.17;;;5.70;99.90;;;;;;5030398;28;20022;-58
2022/12/16 02:31:54;;;;;;;24.33;19.38;;;5.70;99.90;;;;;;5030589;28;20516;-59
2022/12/16 02:34:38;;;;;;;23.92;19.10;;;5.70;99.90;;;;;;5030338;28;20041;-59
2022/12/16 02:37:17;;;;;;;25.83;19.80;;;5.70;99.90;;;;;;5030549;28;20057;-59
2022/12/16 02:39:57;;;;;;;23.25;18.60;;;5.70;99.90;;;;;;5030584;28;20061;-59
2022/12/16 02:42:34;;;;;;;25.13;20.08;;;5.70;99.90;;;;;;5030529;28;20021;-58
2022/12/16 02:45:05;;;;;;;25.80;20.38;;;5.80;99.90;;;;;;5030543;28;20033;-58
2022/12/16 02:47:31;;;;;;;26.75;21.05;;;5.70;99.90;;;;;;5030410;28;20033;-59
2022/12/16 02:49:58;;;;;;;25.45;20.63;;;5.60;99.90;;;;;;5030461;28;20065;-59
2022/12/16 02:52:29;;;;;;;31.33;21.85;;;5.50;99.90;;;;;;5030378;28;20026;-58
2022/12/16 02:55:03;;;;;;;31.58;23.77;;;5.50;99.90;;;;;;5030443;28;20029;-58
2022/12/16 02:57:59;;;;;;;31.20;23.70;;;5.50;99.90;;;;;;5050060;28;20128;-58
2022/12/16 03:00:30;;;;;;;31.05;23.35;;;5.50;99.90;;;;;;5052195;28;20366;-58
2022/12/16 03:03:17;;;;;;;31.65;24.17;;;5.40;99.90;;;;;;5052431;28;20052;-58
2022/12/16 03:05:48;;;;;;;36.20;25.50;;;5.50;99.90;;;;;;5052655;28;20429;-57
2022/12/16 03:08:24;;;;;;;33.20;24.42;;;5.50;99.90;;;;;;5052215;28;20063;-58
2022/12/16 03:10:58;;;;;;;34.13;24.83;;;5.50;99.90;;;;;;5052112;28;20100;-58
2022/12/16 03:13:27;;;;;;;37.05;25.60;;;5.50;99.90;;;;;;5051828;28;20101;-58
2022/12/16 03:15:57;;;;;;;37.05;24.67;;;5.40;99.90;;;;;;5052140;28;20021;-58
2022/12/16 03:18:23;;;;;;;33.13;24.42;;;5.40;99.90;;;;;;5052098;28;20032;-58
2022/12/16 03:20:57;;;;;;;36.75;25.90;;;5.40;99.90;;;;;;5052223;28;20025;-59
2022/12/16 03:23:52;;;;;;;42.28;27.67;;;5.40;99.90;;;;;;5052001;28;20064;-58
2022/12/16 03:26:33;;;;;;;34.90;24.48;;;5.40;99.90;;;;;;5059442;28;20536;-59
2022/12/16 03:29:11;;;;;;;34.72;25.27;;;5.30;99.90;;;;;;5071857;28;20028;-58
2022/12/16 03:31:43;;;;;;;34.03;25.77;;;5.40;99.90;;;;;;5071942;28;20028;-58
2022/12/16 03:34:15;;;;;;;37.38;27.13;;;5.30;99.90;;;;;;5072080;28;20106;-58
2022/12/16 03:36:46;;;;;;;41.67;28.45;;;5.30;99.90;;;;;;5071934;28;20036;-58
2022/12/16 03:39:14;;;;;;;41.53;27.60;;;5.30;99.90;;;;;;5072189;28;20052;-59
2022/12/16 03:41:42;;;;;;;40.42;28.90;;;5.30;99.90;;;;;;5071646;28;20039;-58
2022/12/16 03:44:09;;;;;;;44.60;30.50;;;5.30;99.90;;;;;;5072036;28;20029;-58
2022/12/16 03:46:35;;;;;;;42.45;28.10;;;5.30;99.90;;;;;;5071979;28;20028;-59
2022/12/16 03:49:01;;;;;;;42.33;29.95;;;5.30;99.90;;;;;;5075954;28;20100;-58
2022/12/16 03:51:26;;;;;;;48.30;30.77;;;5.30;99.90;;;;;;5075788;28;20425;-58
2022/12/16 03:53:52;;;;;;;44.20;30.10;;;5.30;99.90;;;;;;5076127;28;20489;-58
2022/12/16 03:56:18;;;;;;;40.42;28.70;;;5.30;99.90;;;;;;5075448;28;20412;-59
2022/12/16 03:58:45;;;;;;;48.10;31.95;;;5.20;99.90;;;;;;5075783;28;20488;-58
2022/12/16 04:01:13;;;;;;;45.70;31.00;;;5.20;99.90;;;;;;5075633;28;20447;-58
2022/12/16 04:03:38;;;;;;;41.53;30.60;;;5.20;99.90;;;;;;5075961;28;20017;-59
2022/12/16 04:06:04;;;;;;;44.28;26.40;;;5.20;99.90;;;;;;5075561;28;20037;-59
2022/12/16 04:08:30;;;;;;;49.13;33.53;;;5.10;99.90;;;;;;5075300;28;20035;-58
2022/12/16 04:25:16;;;;;;;58.72;35.67;;;5.10;99.90;;;;;;5074852;28;20110;-58
2022/12/16 04:27:48;;;;;;;55.30;32.80;;;5.10;99.90;;;;;;5074919;28;20068;-58
2022/12/16 04:30:19;;;;;;;58.95;37.60;;;5.00;99.90;;;;;;5075191;28;20021;-58
